Time;durP1;ratioP1;P1;durP2;ratioP2;P2;SDS_P1;SDS_P2;PMS_P1;PMS_P2;Temp;Humidity;BMP_temperature;BMP_pressure;BME280_temperature;BME280_humidity;BME280_pressure;Samples;Min_cycle;Max_cycle;Signal;HPM_P1;HPM_P2
2021/01/29 00:01:46;;;;;;;71.57;18.95;;;3.10;99.90;;;;;;5023001;28;20045;-79
2021/01/29 00:04:13;;;;;;;68.00;18.40;;;3.10;99.90;;;;;;5001082;28;20073;-79
2021/01/29 00:06:39;;;;;;;72.45;18.98;;;3.10;99.90;;;;;;5002603;28;20107;-77
2021/01/29 00:09:05;;;;;;;74.03;18.77;;;3.10;99.90;;;;;;5021963;28;20060;-78
2021/01/29 00:11:32;;;;;;;69.78;19.85;;;3.20;99.90;;;;;;5021577;28;20056;-78
2021/01/29 00:13:58;;;;;;;60.55;17.15;;;3.20;99.90;;;;;;5013998;28;20499;-78
2021/01/29 00:16:24;;;;;;;55.22;18.17;;;3.20;99.90;;;;;;5011788;28;20436;-78
2021/01/29 00:18:51;;;;;;;57.83;16.80;;;3.20;99.90;;;;;;5016082;28;20066;-78
2021/01/29 00:21:17;;;;;;;57.35;18.42;;;3.20;99.90;;;;;;5016418;28;20461;-78
2021/01/29 00:23:43;;;;;;;62.58;17.67;;;3.20;99.90;;;;;;5004867;28;20081;-78
2021/01/29 00:26:09;;;;;;;50.95;17.08;;;3.20;99.90;;;;;;5017093;28;20076;-76
2021/01/29 00:28:36;;;;;;;59.88;17.40;;;3.20;99.90;;;;;;5016353;28;20054;-76
2021/01/29 00:31:02;;;;;;;58.67;16.77;;;3.20;99.90;;;;;;5015880;28;20052;-76
2021/01/29 00:33:31;;;;;;;50.65;16.33;;;3.20;99.90;;;;;;5017290;28;20049;-76
2021/01/29 00:35:57;;;;;;;46.75;15.10;;;3.20;99.90;;;;;;5012860;28;20054;-77
2021/01/29 00:38:24;;;;;;;47.42;14.80;;;3.20;99.90;;;;;;5007730;28;20057;-76
2021/01/29 00:40:50;;;;;;;45.33;15.70;;;3.20;99.90;;;;;;5014819;28;20053;-77
2021/01/29 00:43:17;;;;;;;43.65;14.45;;;3.20;99.90;;;;;;5017893;28;20053;-76
2021/01/29 00:45:44;;;;;;;42.20;13.95;;;3.30;99.90;;;;;;5011285;28;20050;-77
2021/01/29 00:48:10;;;;;;;45.72;14.35;;;3.30;99.90;;;;;;5012246;28;20046;-77
2021/01/29 00:50:37;;;;;;;45.78;14.15;;;3.20;99.90;;;;;;5013431;28;20053;-76
2021/01/29 00:53:05;;;;;;;43.78;14.13;;;3.30;99.90;;;;;;5018237;28;20171;-77
2021/01/29 00:55:31;;;;;;;43.90;14.65;;;3.30;99.90;;;;;;5007299;28;20049;-76
2021/01/29 00:57:58;;;;;;;44.33;14.63;;;3.30;99.90;;;;;;5000131;28;20427;-77
2021/01/29 01:00:25;;;;;;;49.42;14.77;;;3.30;99.90;;;;;;4999800;28;20064;-77
2021/01/29 01:02:51;;;;;;;49.05;14.38;;;3.30;99.90;;;;;;5009162;28;20129;-77
2021/01/29 01:05:21;;;;;;;50.58;16.40;;;3.30;99.90;;;;;;5012896;28;20061;-78
2021/01/29 01:07:47;;;;;;;50.25;16.05;;;3.40;99.90;;;;;;5021779;28;20050;-77
2021/01/29 01:10:15;;;;;;;62.60;17.52;;;3.40;99.90;;;;;;5012914;28;20057;-77
2021/01/29 01:12:41;;;;;;;66.05;18.92;;;3.40;99.90;;;;;;5014036;28;20049;-77
2021/01/29 01:15:21;;;;;;;71.05;19.13;;;3.30;99.90;;;;;;5016327;28;20051;-77
2021/01/29 01:17:48;;;;;;;69.82;19.75;;;3.30;99.90;;;;;;5014058;28;20899;-77
2021/01/29 01:20:17;;;;;;;72.68;20.38;;;3.30;99.90;;;;;;5015963;28;20063;-77
2021/01/29 01:22:43;;;;;;;92.75;20.05;;;3.40;99.90;;;;;;5014444;28;20053;-77
2021/01/29 01:25:10;;;;;;;72.88;19.35;;;3.40;99.90;;;;;;5016332;28;20064;-77
2021/01/29 01:27:37;;;;;;;90.97;22.42;;;3.40;99.90;;;;;;5019767;28;20057;-77
2021/01/29 01:30:14;;;;;;;88.15;20.77;;;3.40;99.90;;;;;;5013788;28;20045;-77
2021/01/29 01:32:41;;;;;;;99.68;22.60;;;3.40;99.90;;;;;;5011138;28;20427;-77
2021/01/29 01:35:08;;;;;;;117.20;25.75;;;3.40;99.90;;;;;;5016525;28;20057;-77
2021/01/29 01:37:34;;;;;;;105.93;23.30;;;3.40;99.90;;;;;;5004275;28;20059;-77
2021/01/29 01:40:01;;;;;;;106.45;24.08;;;3.40;99.90;;;;;;5004854;28;20056;-77
2021/01/29 01:42:27;;;;;;;134.98;26.80;;;3.40;99.90;;;;;;5011693;28;20140;-77
2021/01/29 01:44:53;;;;;;;123.35;25.80;;;3.40;99.90;;;;;;5020100;28;20057;-77
2021/01/29 01:47:19;;;;;;;139.18;26.83;;;3.40;99.90;;;;;;5002143;28;20049;-77
2021/01/29 01:49:48;;;;;;;177.13;27.75;;;3.40;99.90;;;;;;5019187;28;20351;-77
2021/01/29 01:52:34;;;;;;;144.25;27.10;;;3.50;99.90;;;;;;5019797;28;20063;-77
2021/01/29 01:55:17;;;;;;;164.45;28.48;;;3.40;99.90;;;;;;5004644;28;20045;-77
2021/01/29 01:57:47;;;;;;;179.47;28.70;;;3.50;99.90;;;;;;5018193;28;20132;-77
2021/01/29 02:00:24;;;;;;;203.45;31.05;;;3.40;99.90;;;;;;5021214;28;20056;-77
2021/01/29 02:03:00;;;;;;;183.25;29.73;;;3.50;99.90;;;;;;5019156;28;20488;-77
2021/01/29 02:05:32;;;;;;;214.20;30.80;;;3.50;99.90;;;;;;5017199;28;20056;-77
2021/01/29 02:08:01;;;;;;;220.07;32.05;;;3.50;99.90;;;;;;5016371;28;20056;-77
2021/01/29 02:10:29;;;;;;;260.08;36.03;;;3.50;99.90;;;;;;5004740;28;20139;-77
2021/01/29 02:12:59;;;;;;;217.32;32.47;;;3.50;99.90;;;;;;5018570;28;20054;-77
2021/01/29 02:15:28;;;;;;;208.32;33.10;;;3.50;99.90;;;;;;5015259;28;20430;-77
2021/01/29 02:18:32;;;;;;;231.77;35.40;;;3.50;99.90;;;;;;5009942;28;20096;-77
2021/01/29 02:21:23;;;;;;;189.32;29.70;;;3.60;99.90;;;;;;5016028;28;20071;-77
2021/01/29 02:24:19;;;;;;;198.48;32.47;;;3.60;99.90;;;;;;5016522;28;20054;-77
2021/01/29 02:27:07;;;;;;;253.15;33.47;;;3.60;99.90;;;;;;5013515;28;20132;-77
2021/01/29 02:29:57;;;;;;;192.95;31.23;;;3.60;99.90;;;;;;5017164;28;20056;-77
2021/01/29 02:32:42;;;;;;;169.68;30.08;;;3.60;99.90;;;;;;5016552;28;20048;-77
2021/01/29 02:35:43;;;;;;;143.20;27.58;;;3.70;99.90;;;;;;5003001;28;20524;-77
2021/01/29 02:39:07;;;;;;;138.77;25.83;;;3.70;99.90;;;;;;4992621;28;20382;-77
2021/01/29 02:42:07;;;;;;;147.32;27.17;;;3.70;99.90;;;;;;4964875;28;20524;-77
2021/01/29 02:44:59;;;;;;;137.55;25.65;;;3.70;99.90;;;;;;5022288;28;20073;-79
2021/01/29 02:47:28;;;;;;;140.60;27.05;;;3.70;99.90;;;;;;5023349;28;20059;-78
2021/01/29 02:50:23;;;;;;;114.65;24.83;;;3.70;99.90;;;;;;5023275;28;20088;-77
2021/01/29 02:53:29;;;;;;;117.85;24.90;;;3.70;99.90;;;;;;5019946;28;20057;-78
2021/01/29 02:56:25;;;;;;;125.47;23.80;;;3.70;99.90;;;;;;4981518;28;20048;-77
2021/01/29 02:59:01;;;;;;;108.65;24.13;;;3.70;99.90;;;;;;5008505;28;20473;-77
2021/01/29 03:01:45;;;;;;;121.20;23.58;;;3.80;99.90;;;;;;5022004;28;20059;-78
2021/01/29 03:04:20;;;;;;;105.25;23.00;;;3.80;99.90;;;;;;5010053;28;20056;-77
2021/01/29 03:07:05;;;;;;;110.60;22.85;;;3.80;99.90;;;;;;5012796;28;20050;-77
2021/01/29 03:09:42;;;;;;;88.35;23.08;;;3.80;99.90;;;;;;5018968;28;20045;-76
2021/01/29 03:12:28;;;;;;;103.95;22.27;;;3.80;99.90;;;;;;4998870;28;20061;-77
2021/01/29 03:15:08;;;;;;;91.18;22.50;;;3.90;99.90;;;;;;5013179;28;20053;-77
2021/01/29 03:17:50;;;;;;;89.35;20.92;;;3.90;99.90;;;;;;5019473;28;20136;-77
2021/01/29 03:20:20;;;;;;;87.20;20.65;;;3.90;99.90;;;;;;4999128;28;20050;-77
2021/01/29 03:23:02;;;;;;;96.55;21.88;;;3.90;99.90;;;;;;5010134;28;20056;-77
2021/01/29 03:25:37;;;;;;;96.60;21.75;;;3.90;99.90;;;;;;5010560;28;20065;-77
2021/01/29 03:28:16;;;;;;;83.10;21.30;;;4.00;99.90;;;;;;4994872;28;20557;-77
2021/01/29 03:30:46;;;;;;;79.80;19.70;;;4.00;99.90;;;;;;5018353;28;20052;-77
2021/01/29 03:33:14;;;;;;;77.00;20.80;;;4.00;99.90;;;;;;5007186;28;20136;-77
2021/01/29 03:36:02;;;;;;;82.05;20.60;;;4.00;99.90;;;;;;4997980;28;20049;-76
2021/01/29 03:38:44;;;;;;;75.68;18.55;;;4.10;99.90;;;;;;5014387;28;20559;-76
2021/01/29 03:41:21;;;;;;;64.57;18.92;;;4.10;99.90;;;;;;5000536;28;20045;-77
2021/01/29 03:44:07;;;;;;;81.15;20.73;;;4.10;99.90;;;;;;5021085;28;20049;-77
2021/01/29 03:46:45;;;;;;;70.00;20.02;;;4.10;99.90;;;;;;5009363;28;20050;-77
2021/01/29 03:49:40;;;;;;;75.47;19.38;;;4.20;99.90;;;;;;5012584;28;20465;-77
2021/01/29 03:52:46;;;;;;;67.80;16.98;;;4.20;99.90;;;;;;5009404;28;20049;-76
2021/01/29 03:55:18;;;;;;;73.28;19.13;;;4.20;99.90;;;;;;5018967;28;20069;-77
2021/01/29 03:57:56;;;;;;;78.80;18.85;;;4.20;99.90;;;;;;5012431;28;20053;-77
2021/01/29 04:00:35;;;;;;;76.32;20.10;;;4.20;99.90;;;;;;5007037;28;20055;-77
2021/01/29 04:03:15;;;;;;;64.43;17.52;;;4.20;99.90;;;;;;5019810;28;20061;-77
2021/01/29 04:06:07;;;;;;;71.47;16.88;;;4.20;99.90;;;;;;5012926;28;20413;-76
2021/01/29 04:08:42;;;;;;;61.80;16.95;;;4.20;99.90;;;;;;5001777;28;20057;-77
2021/01/29 04:11:13;;;;;;;65.53;17.00;;;4.20;99.90;;;;;;5000590;28;20147;-77
2021/01/29 04:13:47;;;;;;;57.17;16.10;;;4.20;99.90;;;;;;5017633;28;20045;-77
2021/01/29 04:16:19;;;;;;;63.53;17.23;;;4.20;99.90;;;;;;5016397;28;20555;-77
2021/01/29 04:18:51;;;;;;;54.15;15.15;;;4.20;99.90;;;;;;5014209;28;20808;-77
2021/01/29 04:21:21;;;;;;;53.13;15.02;;;4.20;99.90;;;;;;5003255;28;20046;-76
2021/01/29 04:24:08;;;;;;;55.33;15.02;;;4.20;99.90;;;;;;5014946;28;20047;-77
2021/01/29 04:26:44;;;;;;;51.58;14.73;;;4.20;99.90;;;;;;5015553;28;20058;-77
2021/01/29 04:29:13;;;;;;;55.78;15.80;;;4.30;99.90;;;;;;5009112;28;20045;-77
2021/01/29 04:31:40;;;;;;;52.67;14.05;;;4.20;99.90;;;;;;5007100;28;20061;-77
2021/01/29 04:34:18;;;;;;;50.20;13.68;;;4.30;99.90;;;;;;5012920;28;20045;-77
2021/01/29 04:36:48;;;;;;;50.28;13.32;;;4.30;99.90;;;;;;5013935;28;20140;-77
2021/01/29 04:39:20;;;;;;;41.30;12.50;;;4.40;99.90;;;;;;5015506;28;20061;-77
2021/01/29 04:41:58;;;;;;;36.10;10.90;;;4.30;99.90;;;;;;4999617;28;20060;-77
2021/01/29 04:44:33;;;;;;;34.50;11.70;;;4.40;99.90;;;;;;5017793;28;20045;-77
2021/01/29 04:47:27;;;;;;;32.08;9.82;;;4.40;99.90;;;;;;5015225;28;20056;-77
2021/01/29 04:50:01;;;;;;;33.70;10.43;;;4.40;99.90;;;;;;5001786;28;20535;-77
2021/01/29 04:52:52;;;;;;;31.98;10.07;;;4.40;99.90;;;;;;5012439;28;20136;-77
2021/01/29 04:55:44;;;;;;;31.17;10.60;;;4.40;99.90;;;;;;5014959;28;20136;-77
2021/01/29 04:58:15;;;;;;;32.53;10.48;;;4.40;99.90;;;;;;5014815;28;20493;-77
2021/01/29 05:01:23;;;;;;;31.17;10.93;;;4.40;99.90;;;;;;5020833;28;20042;-77
2021/01/29 05:04:17;;;;;;;27.80;10.18;;;4.40;99.90;;;;;;5021438;28;20041;-77
2021/01/29 05:07:10;;;;;;;29.27;10.35;;;4.50;99.90;;;;;;5021621;28;20468;-77
2021/01/29 05:09:42;;;;;;;27.33;10.40;;;4.50;99.90;;;;;;5019958;28;20054;-77
2021/01/29 05:12:11;;;;;;;32.25;9.48;;;4.50;99.90;;;;;;5012780;28;20056;-77
2021/01/29 05:14:55;;;;;;;25.05;9.63;;;4.50;99.90;;;;;;5019153;28;20049;-76
2021/01/29 05:17:51;;;;;;;27.15;9.40;;;4.50;99.90;;;;;;5010624;28;20057;-77
2021/01/29 05:20:39;;;;;;;42.60;10.15;;;4.60;99.90;;;;;;5002754;28;20053;-78
2021/01/29 05:23:29;;;;;;;27.10;10.52;;;4.60;99.90;;;;;;5014455;28;20109;-78
2021/01/29 05:26:33;;;;;;;25.33;9.00;;;4.50;99.90;;;;;;5019970;28;20046;-77
2021/01/29 05:29:08;;;;;;;26.85;10.10;;;4.60;99.90;;;;;;5000915;28;20051;-77
2021/01/29 05:32:12;;;;;;;24.95;9.30;;;4.60;99.90;;;;;;5002265;28;20049;-77
2021/01/29 05:34:53;;;;;;;25.13;9.15;;;4.60;99.90;;;;;;5020935;28;20049;-77
2021/01/29 05:37:53;;;;;;;25.88;9.15;;;4.60;99.90;;;;;;5017417;28;20060;-77
2021/01/29 05:40:22;;;;;;;27.38;8.73;;;4.60;99.90;;;;;;5018144;28;20409;-77
2021/01/29 05:43:04;;;;;;;25.38;8.43;;;4.70;99.90;;;;;;5021418;28;20076;-77
2021/01/29 05:45:53;;;;;;;25.00;8.73;;;4.70;99.90;;;;;;5004110;28;20160;-77
2021/01/29 05:49:00;;;;;;;31.02;9.65;;;4.70;99.90;;;;;;5010974;28;20045;-77
2021/01/29 05:52:03;;;;;;;27.48;8.95;;;4.70;99.90;;;;;;5019009;28;20056;-76
2021/01/29 05:54:51;;;;;;;27.42;8.23;;;4.80;99.90;;;;;;5018585;28;20167;-76
2021/01/29 05:57:52;;;;;;;28.88;10.20;;;4.80;99.90;;;;;;5001257;28;20041;-76
2021/01/29 06:00:49;;;;;;;21.60;8.95;;;4.80;99.90;;;;;;5020019;28;20057;-77
2021/01/29 06:03:35;;;;;;;21.45;7.65;;;4.80;99.90;;;;;;5003261;28;20037;-76
2021/01/29 06:06:19;;;;;;;22.42;8.63;;;4.90;99.90;;;;;;5017320;28;20584;-75
2021/01/29 06:09:09;;;;;;;23.05;9.32;;;4.90;99.90;;;;;;5009855;28;20049;-77
2021/01/29 06:12:12;;;;;;;33.15;9.55;;;4.90;99.90;;;;;;5002633;28;20045;-77
2021/01/29 06:15:35;;;;;;;26.40;9.40;;;4.90;99.90;;;;;;5012927;28;20052;-77
2021/01/29 06:18:43;;;;;;;28.52;9.05;;;5.00;99.90;;;;;;4969728;28;20058;-77
2021/01/29 06:21:21;;;;;;;26.45;9.27;;;5.00;99.90;;;;;;4950576;28;20085;-76
2021/01/29 06:24:22;;;;;;;31.20;9.35;;;5.10;99.90;;;;;;5014304;28;20042;-77
2021/01/29 06:27:23;;;;;;;29.08;9.57;;;5.10;99.90;;;;;;4975687;28;20053;-77
2021/01/29 06:30:14;;;;;;;31.50;10.10;;;5.20;99.90;;;;;;5018869;28;20091;-77
2021/01/29 06:33:04;;;;;;;41.50;10.77;;;5.20;99.90;;;;;;5019152;28;20057;-76
2021/01/29 06:35:47;;;;;;;37.58;10.85;;;5.30;99.90;;;;;;5005146;28;20148;-76
2021/01/29 06:38:41;;;;;;;38.00;12.93;;;5.30;99.90;;;;;;5019609;28;20050;-76
2021/01/29 06:41:29;;;;;;;35.75;11.38;;;5.30;99.90;;;;;;5002198;28;20128;-77
2021/01/29 06:44:21;;;;;;;45.83;11.95;;;5.40;99.90;;;;;;5010993;28;20128;-77
2021/01/29 06:47:02;;;;;;;39.17;11.38;;;5.40;99.90;;;;;;5020842;28;20053;-77
2021/01/29 06:49:39;;;;;;;53.38;11.88;;;5.50;99.90;;;;;;4996221;28;20041;-77
2021/01/29 06:52:15;;;;;;;41.92;11.18;;;5.50;99.90;;;;;;5013325;28;20045;-77
2021/01/29 06:55:09;;;;;;;63.33;12.85;;;5.50;99.90;;;;;;5004910;28;20041;-77
2021/01/29 06:57:50;;;;;;;65.10;14.07;;;5.60;99.90;;;;;;5011727;28;20041;-77
2021/01/29 07:00:29;;;;;;;56.60;14.55;;;5.60;99.90;;;;;;5013175;28;20045;-77
2021/01/29 07:03:03;;;;;;;115.30;17.42;;;5.60;99.90;;;;;;5009346;28;20408;-77
2021/01/29 07:05:38;;;;;;;63.20;17.10;;;5.70;99.90;;;;;;5003793;28;20045;-77
2021/01/29 07:08:36;;;;;;;58.45;16.48;;;5.80;99.90;;;;;;5014494;28;20492;-78
2021/01/29 07:11:38;;;;;;;60.60;15.68;;;6.00;99.90;;;;;;5014183;28;20517;-77
2021/01/29 07:14:23;;;;;;;47.78;15.35;;;6.30;99.90;;;;;;5014651;28;20048;-77
2021/01/29 07:17:15;;;;;;;45.78;13.68;;;6.60;99.90;;;;;;5020258;28;20045;-77
2021/01/29 07:20:18;;;;;;;43.30;13.57;;;6.70;99.90;;;;;;5024806;28;20048;-78
2021/01/29 07:22:55;;;;;;;35.83;12.95;;;6.90;99.90;;;;;;5004615;28;20153;-77
2021/01/29 07:25:54;;;;;;;34.58;11.85;;;7.00;99.90;;;;;;5020260;28;20050;-76
2021/01/29 07:28:44;;;;;;;26.50;9.60;;;7.10;99.90;;;;;;5005822;28;20389;-76
2021/01/29 07:31:16;;;;;;;33.38;9.85;;;7.20;99.90;;;;;;5004644;28;20141;-77
2021/01/29 07:33:59;;;;;;;27.95;9.27;;;7.20;99.90;;;;;;5000132;28;20057;-77
2021/01/29 07:36:56;;;;;;;23.02;7.82;;;7.30;99.90;;;;;;5015075;28;20136;-77
2021/01/29 07:39:49;;;;;;;19.67;6.97;;;7.40;99.90;;;;;;4999760;28;20670;-77
2021/01/29 07:42:50;;;;;;;15.20;6.72;;;7.50;99.90;;;;;;5017883;28;20140;-77
2021/01/29 07:46:10;;;;;;;21.58;5.70;;;7.50;99.90;;;;;;5014174;28;20409;-77
2021/01/29 07:48:54;;;;;;;13.60;4.60;;;7.50;99.90;;;;;;4935244;28;20142;-77
2021/01/29 07:51:38;;;;;;;13.40;3.33;;;7.60;99.90;;;;;;4996199;28;20095;-77
2021/01/29 07:54:19;;;;;;;12.00;2.60;;;7.60;99.90;;;;;;5016428;28;20041;-77
2021/01/29 07:57:00;;;;;;;11.35;2.28;;;7.60;99.90;;;;;;5006100;28;20050;-76
2021/01/29 08:00:07;;;;;;;10.27;2.08;;;7.50;99.90;;;;;;4998167;28;20049;-76
2021/01/29 08:03:10;;;;;;;10.65;2.30;;;7.50;99.90;;;;;;5000538;28;20069;-77
2021/01/29 08:06:08;;;;;;;11.95;1.90;;;7.60;99.90;;;;;;4999365;28;20057;-77
2021/01/29 08:08:50;;;;;;;12.15;1.85;;;7.50;99.90;;;;;;4999019;28;20496;-77
2021/01/29 08:11:17;;;;;;;10.18;2.00;;;7.60;99.90;;;;;;5001020;28;20508;-76
2021/01/29 08:14:10;;;;;;;16.48;2.72;;;7.60;99.90;;;;;;5018092;28;20045;-77
2021/01/29 08:17:16;;;;;;;10.93;2.53;;;7.60;99.90;;;;;;5005088;28;20122;-76
2021/01/29 08:20:18;;;;;;;14.32;3.80;;;7.70;99.90;;;;;;5017187;28;20041;-77
2021/01/29 08:23:25;;;;;;;14.55;5.55;;;7.70;99.90;;;;;;4959473;28;20536;-76
2021/01/29 08:26:36;;;;;;;18.05;6.97;;;7.80;99.90;;;;;;4990101;28;20042;-76
2021/01/29 08:29:14;;;;;;;17.95;6.78;;;7.80;99.90;;;;;;5008603;28;20103;-76
2021/01/29 08:32:00;;;;;;;19.13;6.28;;;7.90;99.90;;;;;;5002015;28;20214;-75
2021/01/29 08:34:40;;;;;;;19.30;6.07;;;7.90;99.90;;;;;;5014916;28;20049;-76
2021/01/29 08:37:37;;;;;;;16.48;5.57;;;8.00;99.90;;;;;;5019753;28;20050;-77
2021/01/29 08:40:32;;;;;;;27.13;4.78;;;8.00;99.90;;;;;;4992408;28;20045;-77
2021/01/29 08:43:10;;;;;;;18.90;4.72;;;8.10;99.90;;;;;;4995098;28;20127;-77
2021/01/29 08:45:54;;;;;;;20.50;4.45;;;8.10;99.90;;;;;;5018105;28;20456;-77
2021/01/29 08:48:33;;;;;;;;;;;8.10;99.90;;;;;;5019488;28;20140;-78
2021/01/29 08:51:27;;;;;;;26.92;4.82;;;8.10;99.90;;;;;;4991424;28;21616;-79
2021/01/29 08:54:31;;;;;;;25.48;5.68;;;8.10;99.90;;;;;;5015054;28;20063;-77
2021/01/29 08:57:00;;;;;;;29.35;5.47;;;8.20;99.90;;;;;;5006575;28;20109;-78
2021/01/29 08:59:31;;;;;;;29.00;5.22;;;8.20;99.90;;;;;;5000372;28;20404;-79
2021/01/29 09:02:21;;;;;;;27.88;6.28;;;8.20;99.90;;;;;;5010446;28;20049;-81
2021/01/29 09:04:48;;;;;;;32.78;6.47;;;8.20;99.90;;;;;;5019974;28;20099;-78
2021/01/29 09:07:35;;;;;;;33.70;5.57;;;8.20;99.90;;;;;;5019099;28;20049;-79
2021/01/29 09:10:19;;;;;;;30.15;6.00;;;8.20;99.90;;;;;;5009239;28;20049;-77
2021/01/29 09:12:46;;;;;;;40.13;6.38;;;8.20;99.90;;;;;;5012372;28;20056;-78
2021/01/29 09:15:18;;;;;;;35.00;5.38;;;8.20;99.90;;;;;;5021929;28;21206;-79
2021/01/29 09:17:56;;;;;;;35.13;7.68;;;8.30;99.90;;;;;;4985715;28;20058;-76
2021/01/29 09:20:29;;;;;;;32.83;5.72;;;8.30;99.90;;;;;;5016272;28;20049;-78
2021/01/29 09:23:06;;;;;;;34.45;6.40;;;8.30;99.90;;;;;;5015194;28;20049;-76
2021/01/29 09:25:49;;;;;;;40.20;6.65;;;8.30;99.90;;;;;;5012903;28;20051;-76
2021/01/29 09:28:16;;;;;;;37.58;5.30;;;8.30;99.90;;;;;;5017452;28;20492;-78
2021/01/29 09:30:57;;;;;;;42.05;6.32;;;8.30;99.90;;;;;;5018288;28;20041;-78
2021/01/29 09:33:43;;;;;;;34.10;5.30;;;8.40;99.90;;;;;;5020104;28;20052;-77
2021/01/29 09:36:25;;;;;;;41.50;5.68;;;8.40;99.90;;;;;;4999052;28;20061;-77
2021/01/29 09:39:02;;;;;;;40.60;6.10;;;8.40;99.90;;;;;;5015957;28;20049;-77
2021/01/29 09:41:39;;;;;;;34.40;5.78;;;8.40;99.90;;;;;;4999841;28;20496;-77
2021/01/29 09:44:23;;;;;;;37.17;5.47;;;8.40;99.90;;;;;;5013976;28;20045;-77
2021/01/29 09:46:54;;;;;;;47.88;7.63;;;8.40;99.90;;;;;;5019408;28;20071;-77
2021/01/29 09:49:26;;;;;;;31.45;6.18;;;8.40;99.90;;;;;;5004523;28;20394;-77
2021/01/29 09:52:17;;;;;;;43.00;8.23;;;8.40;99.90;;;;;;5013096;28;20048;-78
2021/01/29 09:54:43;;;;;;;35.08;6.15;;;8.40;99.90;;;;;;5019508;28;20049;-77
2021/01/29 09:57:33;;;;;;;50.95;6.38;;;8.40;99.90;;;;;;5013488;28;20058;-77
2021/01/29 10:00:22;;;;;;;39.88;6.28;;;8.50;99.90;;;;;;5019867;28;20494;-77
2021/01/29 10:03:03;;;;;;;40.60;6.38;;;8.50;99.90;;;;;;5006095;28;20560;-77
2021/01/29 10:05:45;;;;;;;52.80;6.28;;;8.50;99.90;;;;;;5014313;28;20052;-77
2021/01/29 10:08:17;;;;;;;30.83;4.82;;;8.60;99.90;;;;;;5006065;28;20467;-77
2021/01/29 10:11:16;;;;;;;36.08;4.85;;;8.60;99.90;;;;;;5003623;28;20045;-77
2021/01/29 10:13:59;;;;;;;30.52;6.25;;;8.70;99.90;;;;;;5005306;28;20048;-78
2021/01/29 10:16:39;;;;;;;38.92;6.18;;;8.70;99.90;;;;;;5006455;28;20051;-77
2021/01/29 10:19:22;;;;;;;37.70;5.57;;;8.70;99.90;;;;;;5013700;28;20061;-77
2021/01/29 10:21:57;;;;;;;43.88;5.53;;;8.70;99.90;;;;;;5013433;28;20041;-78
2021/01/29 10:24:48;;;;;;;32.53;4.55;;;8.70;99.90;;;;;;5002378;28;20067;-77
2021/01/29 10:27:34;;;;;;;31.20;4.55;;;8.80;99.90;;;;;;5002892;28;20053;-78
2021/01/29 10:30:28;;;;;;;35.90;4.63;;;8.80;99.90;;;;;;5001793;28;20045;-77
2021/01/29 10:33:11;;;;;;;37.00;5.10;;;8.80;99.90;;;;;;5000747;28;20053;-77
2021/01/29 10:36:06;;;;;;;31.85;4.85;;;8.80;99.90;;;;;;5022788;28;20041;-78
2021/01/29 10:38:46;;;;;;;34.13;4.15;;;8.80;99.90;;;;;;5004027;28;20052;-78
2021/01/29 10:41:19;;;;;;;38.42;4.60;;;8.80;99.90;;;;;;5026388;28;20050;-77
2021/01/29 10:43:58;;;;;;;36.60;4.68;;;8.80;99.90;;;;;;5023356;28;20053;-77
2021/01/29 10:46:39;;;;;;;31.85;4.35;;;8.80;99.90;;;;;;5010504;28;20499;-78
2021/01/29 10:49:29;;;;;;;26.13;3.63;;;8.80;99.90;;;;;;5011623;28;20049;-77
2021/01/29 10:52:17;;;;;;;27.98;4.22;;;8.80;99.90;;;;;;5011931;28;20049;-78
2021/01/29 10:54:43;;;;;;;41.33;5.65;;;8.80;99.90;;;;;;5023662;28;20054;-77
2021/01/29 10:57:52;;;;;;;33.72;4.03;;;8.80;99.90;;;;;;5012486;28;21877;-77
2021/01/29 11:00:24;;;;;;;29.70;3.85;;;8.80;99.90;;;;;;5003575;28;20050;-77
2021/01/29 11:03:28;;;;;;;35.78;5.32;;;8.80;99.90;;;;;;5000252;28;20045;-77
2021/01/29 11:05:58;;;;;;;35.92;6.13;;;8.80;99.90;;;;;;4935477;28;20114;-77
2021/01/29 11:08:30;;;;;;;29.55;4.60;;;8.90;99.90;;;;;;5027237;28;20046;-78
2021/01/29 11:11:09;;;;;;;29.33;3.58;;;8.90;99.90;;;;;;5021586;28;20492;-78
2021/01/29 11:13:47;;;;;;;39.17;4.20;;;8.90;99.90;;;;;;5003996;28;20052;-77
2021/01/29 11:16:18;;;;;;;33.47;4.55;;;8.90;99.90;;;;;;5014290;28;20047;-77
2021/01/29 11:18:57;;;;;;;34.17;3.92;;;8.90;99.90;;;;;;5024786;28;20057;-78
2021/01/29 11:21:54;;;;;;;29.02;4.07;;;8.90;99.90;;;;;;5001541;28;20432;-77
2021/01/29 11:24:31;;;;;;;40.03;5.85;;;9.00;99.90;;;;;;5024241;28;20560;-77
2021/01/29 11:27:12;;;;;;;36.35;6.03;;;9.00;99.90;;;;;;5022652;28;20132;-78
2021/01/29 11:29:57;;;;;;;30.73;3.90;;;9.00;99.90;;;;;;5023334;28;20045;-77
2021/01/29 11:32:33;;;;;;;32.42;4.95;;;9.10;99.90;;;;;;5021541;28;20508;-77
2021/01/29 11:35:20;;;;;;;26.88;3.97;;;9.10;99.90;;;;;;4995181;28;20144;-77
2021/01/29 11:37:55;;;;;;;31.23;4.97;;;9.10;99.90;;;;;;5020204;28;20473;-77
2021/01/29 11:40:38;;;;;;;35.33;4.97;;;9.20;99.90;;;;;;5002671;28;20095;-77
2021/01/29 11:43:10;;;;;;;41.40;4.70;;;9.20;99.90;;;;;;5019501;28;20515;-77
2021/01/29 11:45:48;;;;;;;24.58;4.40;;;9.20;99.90;;;;;;5019862;28;20045;-77
2021/01/29 11:48:28;;;;;;;34.80;4.75;;;9.20;99.90;;;;;;5004808;28;20045;-78
2021/01/29 11:51:10;;;;;;;28.85;4.50;;;9.30;99.90;;;;;;5003555;28;20102;-77
2021/01/29 11:53:50;;;;;;;41.75;5.13;;;9.30;99.90;;;;;;5024284;28;20049;-78
2021/01/29 11:56:21;;;;;;;32.53;4.35;;;9.30;99.90;;;;;;5014149;28;20049;-77
2021/01/29 11:58:54;;;;;;;29.60;5.20;;;9.30;99.90;;;;;;5006382;28;20859;-78
2021/01/29 12:01:30;;;;;;;21.48;5.45;;;9.30;99.90;;;;;;5012623;28;20137;-78
2021/01/29 12:04:38;;;;;;;37.55;5.63;;;9.30;99.90;;;;;;5022528;28;20053;-77
2021/01/29 12:07:35;;;;;;;35.53;5.32;;;9.30;99.90;;;;;;5003606;28;20045;-77
2021/01/29 12:10:11;;;;;;;28.70;3.70;;;9.30;99.90;;;;;;5020770;28;20465;-78
2021/01/29 12:12:51;;;;;;;34.60;4.53;;;9.40;99.90;;;;;;5000485;28;20079;-78
2021/01/29 12:15:23;;;;;;;34.75;3.53;;;9.40;99.90;;;;;;5021986;28;20057;-77
2021/01/29 12:17:58;;;;;;;33.50;4.57;;;9.50;99.90;;;;;;5021763;28;20049;-77
2021/01/29 12:20:30;;;;;;;29.40;3.75;;;9.60;99.90;;;;;;5024579;28;20303;-77
2021/01/29 12:23:11;;;;;;;32.90;5.47;;;9.60;99.90;;;;;;5022115;28;20109;-78
2021/01/29 12:25:44;;;;;;;22.08;3.88;;;9.70;99.90;;;;;;5010503;28;20140;-78
2021/01/29 12:28:24;;;;;;;23.25;4.22;;;9.70;99.90;;;;;;4985064;28;20049;-78
2021/01/29 12:31:11;;;;;;;18.98;3.63;;;9.70;99.90;;;;;;4987696;28;20045;-77
2021/01/29 12:33:55;;;;;;;21.23;3.22;;;9.70;99.90;;;;;;5003381;28;20048;-78
2021/01/29 12:36:26;;;;;;;32.17;4.10;;;9.70;99.90;;;;;;5002568;28;20663;-78
2021/01/29 12:39:23;;;;;;;17.58;3.28;;;9.70;99.90;;;;;;5002397;28;20045;-77
2021/01/29 12:42:19;;;;;;;31.33;5.65;;;9.70;99.90;;;;;;5002877;28;20060;-78
2021/01/29 12:44:54;;;;;;;29.13;4.80;;;9.60;99.90;;;;;;5003960;28;20045;-78
2021/01/29 12:47:41;;;;;;;22.08;3.58;;;9.60;99.90;;;;;;4984753;28;20049;-78
2021/01/29 12:50:38;;;;;;;29.20;3.40;;;9.60;99.90;;;;;;4998234;28;20189;-77
2021/01/29 12:53:32;;;;;;;27.25;4.18;;;9.60;99.90;;;;;;4990973;28;20147;-77
2021/01/29 12:56:20;;;;;;;27.98;3.38;;;9.50;99.90;;;;;;5001874;28;20050;-77
2021/01/29 12:58:56;;;;;;;28.70;5.38;;;9.50;99.90;;;;;;5002121;28;20500;-77
2021/01/29 13:01:34;;;;;;;32.00;4.80;;;9.50;99.90;;;;;;5000386;28;20061;-77
2021/01/29 13:04:14;;;;;;;33.00;3.85;;;9.50;99.90;;;;;;4998847;28;20042;-77
2021/01/29 13:07:02;;;;;;;24.20;4.20;;;9.50;99.90;;;;;;4999918;28;20056;-77
2021/01/29 13:09:55;;;;;;;30.55;4.28;;;9.50;99.90;;;;;;4983765;28;20042;-78
2021/01/29 13:12:50;;;;;;;28.55;4.78;;;9.50;99.90;;;;;;5000171;28;20064;-77
2021/01/29 13:16:00;;;;;;;26.08;4.47;;;9.50;99.90;;;;;;4995087;28;20053;-77
2021/01/29 13:18:50;;;;;;;24.85;5.07;;;9.60;99.90;;;;;;4974289;28;20046;-77
2021/01/29 13:21:27;;;;;;;32.35;4.28;;;9.60;99.90;;;;;;4995105;28;20142;-77
2021/01/29 13:23:59;;;;;;;31.25;4.72;;;9.60;99.90;;;;;;5007435;28;20054;-77
2021/01/29 13:26:44;;;;;;;26.98;4.15;;;9.60;99.90;;;;;;5011928;28;20563;-79
2021/01/29 13:29:23;;;;;;;25.45;3.70;;;9.70;99.90;;;;;;5009328;28;20072;-77
2021/01/29 13:31:53;;;;;;;34.33;5.10;;;9.70;99.90;;;;;;5009606;28;20137;-77
2021/01/29 13:34:25;;;;;;;28.30;3.58;;;9.80;99.90;;;;;;5026308;28;20140;-78
2021/01/29 13:37:04;;;;;;;20.98;2.80;;;9.90;99.90;;;;;;5001009;28;20144;-77
2021/01/29 13:39:51;;;;;;;29.88;3.45;;;9.90;99.90;;;;;;5009451;28;20474;-77
2021/01/29 13:42:28;;;;;;;21.13;3.42;;;9.90;99.90;;;;;;5008464;28;20053;-77
2021/01/29 13:45:15;;;;;;;22.27;3.83;;;9.90;99.90;;;;;;5027030;28;20049;-77
2021/01/29 13:47:49;;;;;;;23.17;4.53;;;9.80;99.90;;;;;;5017058;28;20071;-77
2021/01/29 13:50:24;;;;;;;33.95;5.35;;;9.80;99.90;;;;;;5004525;28;20457;-77
2021/01/29 13:52:56;;;;;;;21.50;3.38;;;9.70;99.90;;;;;;5024972;28;20049;-77
2021/01/29 13:55:37;;;;;;;40.47;5.57;;;9.70;99.90;;;;;;5025787;28;20049;-77